createdAt,value
2018-02-15T00:01:41.434Z,2.81
2018-02-15T00:04:09.818Z,2.42
2018-02-15T00:06:38.230Z,2.23
2018-02-15T00:09:07.014Z,2.61
2018-02-15T00:11:35.887Z,2.89
2018-02-15T00:14:04.255Z,2.79
2018-02-15T00:16:32.632Z,2.90
2018-02-15T00:19:01.019Z,3.30
2018-02-15T00:21:29.389Z,3.36
2018-02-15T00:23:57.829Z,3.16
2018-02-15T00:26:26.211Z,3.24
2018-02-15T00:28:54.563Z,2.98
2018-02-15T00:31:23.478Z,2.97
2018-02-15T00:33:51.852Z,3.00
2018-02-15T00:36:20.228Z,3.07
2018-02-15T00:38:48.599Z,2.34
2018-02-15T00:41:16.988Z,2.66
2018-02-15T00:43:45.371Z,2.66
2018-02-15T00:46:13.731Z,2.82
2018-02-15T00:48:42.508Z,2.82
2018-02-15T00:51:11.283Z,2.75
2018-02-15T00:53:39.685Z,2.34
2018-02-15T00:56:08.447Z,2.76
2018-02-15T00:58:36.847Z,2.65
2018-02-15T01:01:05.706Z,2.68
2018-02-15T01:03:34.066Z,2.77
2018-02-15T01:06:02.960Z,2.90
2018-02-15T01:08:31.331Z,2.74
2018-02-15T01:10:59.998Z,2.59
2018-02-15T01:13:28.391Z,2.83
2018-02-15T01:15:56.743Z,3.00
2018-02-15T01:18:25.106Z,3.00
2018-02-15T01:20:53.960Z,2.87
2018-02-15T01:23:22.437Z,2.78
2018-02-15T01:25:50.844Z,3.17
2018-02-15T01:28:19.609Z,3.14
2018-02-15T01:30:48.077Z,3.16
2018-02-15T01:33:17.117Z,2.96
2018-02-15T01:35:45.944Z,2.99
2018-02-15T01:38:14.336Z,2.82
2018-02-15T01:40:42.688Z,2.56
2018-02-15T01:43:11.095Z,2.95
2018-02-15T01:45:39.484Z,3.35
2018-02-15T01:48:07.933Z,3.43
2018-02-15T01:50:36.293Z,3.71
2018-02-15T01:53:04.656Z,3.53
2018-02-15T01:55:33.495Z,3.38
2018-02-15T01:58:01.904Z,3.58
2018-02-15T02:00:30.314Z,3.14
2018-02-15T02:02:58.688Z,3.51
2018-02-15T02:05:27.546Z,3.18
2018-02-15T02:07:55.951Z,3.10
2018-02-15T02:10:24.729Z,3.14
2018-02-15T02:12:53.119Z,2.58
2018-02-15T02:15:21.948Z,2.57
2018-02-15T02:17:50.312Z,3.33
2018-02-15T02:20:18.735Z,2.91
2018-02-15T02:22:47.108Z,2.99
2018-02-15T02:25:15.502Z,2.85
2018-02-15T02:27:44.010Z,2.67
2018-02-15T02:30:12.366Z,2.89
2018-02-15T02:32:40.724Z,2.85
2018-02-15T02:35:09.107Z,2.86
2018-02-15T02:37:37.522Z,2.76
2018-02-15T02:40:06.284Z,2.90
2018-02-15T02:42:34.649Z,2.91
2018-02-15T02:45:03.026Z,2.95
2018-02-15T02:47:31.412Z,2.79
2018-02-15T02:49:59.815Z,2.51
2018-02-15T02:52:28.192Z,2.30
2018-02-15T02:54:56.553Z,2.94
2018-02-15T02:57:24.924Z,2.74
2018-02-15T02:59:53.281Z,2.60
2018-02-15T03:02:21.660Z,2.61
2018-02-15T03:04:50.015Z,2.51
2018-02-15T03:07:18.365Z,2.62
2018-02-15T03:09:46.731Z,2.78
2018-02-15T03:12:15.111Z,3.03
2018-02-15T03:14:43.529Z,2.68
2018-02-15T03:17:12.022Z,2.77
2018-02-15T03:19:40.384Z,2.48
2018-02-15T03:22:09.150Z,2.95
2018-02-15T03:24:37.585Z,3.02
2018-02-15T03:27:06.007Z,2.70
2018-02-15T03:29:34.363Z,2.08
2018-02-15T03:32:02.789Z,2.25
2018-02-15T03:34:31.615Z,2.37
2018-02-15T03:36:59.977Z,2.28
2018-02-15T03:39:28.360Z,2.49
2018-02-15T03:41:56.729Z,2.71
2018-02-15T03:44:25.147Z,2.95
2018-02-15T03:46:53.626Z,3.07
2018-02-15T03:49:22.081Z,2.40
2018-02-15T03:51:50.456Z,2.93
2018-02-15T03:54:18.846Z,3.09
2018-02-15T03:56:47.213Z,3.18
2018-02-15T03:59:15.618Z,3.21
2018-02-15T04:01:44.012Z,2.94
2018-02-15T04:04:12.385Z,2.74
2018-02-15T04:06:40.747Z,2.73
2018-02-15T04:09:09.238Z,2.48
2018-02-15T04:11:38.394Z,2.91
2018-02-15T04:14:06.807Z,2.50
2018-02-15T04:16:35.170Z,1.95
2018-02-15T04:19:04.283Z,2.32
2018-02-15T04:21:32.653Z,2.74
2018-02-15T04:24:01.003Z,2.77
2018-02-15T04:26:29.365Z,3.13
2018-02-15T04:28:58.116Z,3.05
2018-02-15T04:31:26.486Z,2.83
2018-02-15T04:33:54.922Z,2.62
2018-02-15T04:36:23.699Z,2.79
2018-02-15T04:38:52.439Z,2.67
2018-02-15T04:41:20.787Z,2.20
2018-02-15T04:43:49.162Z,2.33
2018-02-15T04:46:17.517Z,2.48
2018-02-15T04:48:46.288Z,2.56
2018-02-15T04:51:14.635Z,2.21
2018-02-15T04:53:43.129Z,2.33
2018-02-15T04:56:11.512Z,2.43
2018-02-15T04:58:39.873Z,2.84
2018-02-15T05:01:08.269Z,2.52
2018-02-15T05:03:36.619Z,2.74
2018-02-15T05:06:05.029Z,2.86
2018-02-15T05:08:33.393Z,2.85
2018-02-15T05:11:01.745Z,3.05
2018-02-15T05:13:30.110Z,3.19
2018-02-15T05:15:58.863Z,3.00
2018-02-15T05:18:27.244Z,3.12
2018-02-15T05:20:55.599Z,2.98
2018-02-15T05:23:23.959Z,3.29
2018-02-15T05:25:52.317Z,2.82
2018-02-15T05:28:20.742Z,2.62
2018-02-15T05:30:49.123Z,3.33
2018-02-15T05:33:17.595Z,3.48
2018-02-15T05:35:45.976Z,3.31
2018-02-15T05:38:14.660Z,3.19
2018-02-15T05:40:43.152Z,3.09
2018-02-15T05:43:11.499Z,3.16
2018-02-15T05:45:39.905Z,3.51
2018-02-15T05:48:08.274Z,2.84
2018-02-15T05:50:36.622Z,2.20
2018-02-15T05:53:04.991Z,2.73
2018-02-15T05:55:34.239Z,2.91
2018-02-15T05:58:02.710Z,2.69
2018-02-15T06:00:31.355Z,2.29
2018-02-15T06:02:59.712Z,2.59
2018-02-15T06:05:28.168Z,2.60
2018-02-15T06:07:56.542Z,2.17
2018-02-15T06:10:26.785Z,2.05
2018-02-15T06:12:57.609Z,2.14
2018-02-15T06:15:26.948Z,2.07
2018-02-15T06:17:55.826Z,2.23
2018-02-15T06:20:24.711Z,2.70
2018-02-15T06:22:55.625Z,2.78
2018-02-15T06:25:25.573Z,2.76
2018-02-15T06:27:55.675Z,2.70
2018-02-15T06:30:24.351Z,2.37
2018-02-15T06:32:55.725Z,2.78
2018-02-15T06:35:27.243Z,2.60
2018-02-15T06:37:57.629Z,2.46
2018-02-15T06:40:27.369Z,2.48
2018-02-15T06:42:55.752Z,2.37
2018-02-15T06:45:25.846Z,2.54
2018-02-15T06:47:54.195Z,3.09
2018-02-15T06:50:24.441Z,3.08
2018-02-15T06:52:55.733Z,3.07
2018-02-15T06:55:27.043Z,2.60
2018-02-15T06:57:57.418Z,2.71
2018-02-15T07:00:28.521Z,2.01
2018-02-15T07:02:59.714Z,1.67
2018-02-15T07:05:30.299Z,1.97
2018-02-15T07:08:01.168Z,1.84
2018-02-15T07:10:31.638Z,1.60
2018-02-15T07:13:02.039Z,1.72
2018-02-15T07:15:33.255Z,1.92
2018-02-15T07:18:04.130Z,2.42
2018-02-15T07:20:35.428Z,2.54
2018-02-15T07:23:06.303Z,2.52
2018-02-15T07:25:36.859Z,2.78
2018-02-15T07:28:07.695Z,2.98
2018-02-15T07:30:38.629Z,2.97
2018-02-15T07:33:09.120Z,3.18
2018-02-15T07:35:40.296Z,3.17
2018-02-15T07:38:09.142Z,3.14
2018-02-15T07:40:37.488Z,3.06
2018-02-15T07:43:05.839Z,3.22
2018-02-15T07:45:34.592Z,3.48
2018-02-15T07:48:02.989Z,2.73
2018-02-15T07:50:31.344Z,2.95
2018-02-15T07:52:59.710Z,2.83
2018-02-15T07:55:28.064Z,2.83
2018-02-15T07:57:56.530Z,3.11
2018-02-15T08:00:24.898Z,3.21
2018-02-15T08:02:53.644Z,3.46
2018-02-15T08:05:21.999Z,3.69
2018-02-15T08:07:50.367Z,3.34
2018-02-15T08:10:18.881Z,3.22
2018-02-15T08:12:47.377Z,3.70
2018-02-15T08:15:15.741Z,3.48
2018-02-15T08:17:44.221Z,3.23
2018-02-15T08:20:12.603Z,3.23
2018-02-15T08:22:40.986Z,3.63
2018-02-15T08:25:09.336Z,3.83
2018-02-15T08:27:37.692Z,4.08
2018-02-15T08:30:06.475Z,3.70
2018-02-15T08:32:35.333Z,3.74
2018-02-15T08:35:03.706Z,4.26
2018-02-15T08:37:32.095Z,3.89
2018-02-15T08:40:00.449Z,4.07
2018-02-15T08:42:29.557Z,3.84
2018-02-15T08:44:57.902Z,4.09
2018-02-15T08:47:26.310Z,4.14
2018-02-15T08:49:54.656Z,4.23
2018-02-15T08:52:23.008Z,4.43
2018-02-15T08:54:51.756Z,4.35
2018-02-15T08:57:20.123Z,5.05
2018-02-15T08:59:48.500Z,5.35
2018-02-15T09:02:16.863Z,4.89
2018-02-15T09:04:45.227Z,4.97
2018-02-15T09:07:13.596Z,5.38
2018-02-15T09:09:42.346Z,6.25
2018-02-15T09:12:11.045Z,6.03
2018-02-15T09:14:39.491Z,6.11
2018-02-15T09:17:07.852Z,6.34
2018-02-15T09:19:36.204Z,6.38
2018-02-15T09:22:05.040Z,6.71
2018-02-15T09:24:33.387Z,6.71
2018-02-15T09:27:01.772Z,7.37
2018-02-15T09:29:31.040Z,7.13
2018-02-15T09:31:59.787Z,7.11
2018-02-15T09:34:28.159Z,7.59
2018-02-15T09:36:56.556Z,7.79
2018-02-15T09:39:24.907Z,8.26
2018-02-15T09:41:53.260Z,8.01
2018-02-15T09:44:21.617Z,8.28
2018-02-15T09:46:50.060Z,9.39
2018-02-15T09:49:18.445Z,10.40
2018-02-15T09:51:46.818Z,11.04
2018-02-15T09:54:15.185Z,10.45
2018-02-15T09:56:43.535Z,10.21
2018-02-15T09:59:11.887Z,10.62
2018-02-15T10:01:40.332Z,10.11
2018-02-15T10:04:08.686Z,9.45
2018-02-15T10:06:37.027Z,9.69
2018-02-15T10:09:05.783Z,10.31
2018-02-15T10:11:34.161Z,10.09
2018-02-15T10:14:02.642Z,9.88
2018-02-15T10:16:31.011Z,10.05
2018-02-15T10:18:59.361Z,10.14
2018-02-15T10:21:27.769Z,10.58
2018-02-15T10:23:56.164Z,9.70
2018-02-15T10:26:24.640Z,9.91
2018-02-15T10:28:52.984Z,9.49
2018-02-15T10:31:21.336Z,8.91
2018-02-15T10:33:50.175Z,9.38
2018-02-15T10:36:18.523Z,9.68
2018-02-15T10:38:46.913Z,9.39
2018-02-15T10:41:15.268Z,9.40
2018-02-15T10:43:43.709Z,9.82
2018-02-15T10:46:12.053Z,9.07
2018-02-15T10:48:40.403Z,9.36
2018-02-15T10:51:09.248Z,9.25
2018-02-15T10:53:37.608Z,9.29
2018-02-15T10:56:05.964Z,8.66
2018-02-15T10:58:34.308Z,9.10
2018-02-15T11:01:08.259Z,8.90
2018-02-15T11:03:36.600Z,8.79
2018-02-15T11:06:04.947Z,8.31
2018-02-15T11:08:33.320Z,7.91
2018-02-15T11:11:01.704Z,7.94
2018-02-15T11:13:30.113Z,7.87
2018-02-15T11:15:58.600Z,7.78
2018-02-15T11:18:27.454Z,8.25
2018-02-15T11:20:55.827Z,8.44
2018-02-15T11:23:24.166Z,7.95
2018-02-15T11:25:53.000Z,7.10
2018-02-15T11:28:21.368Z,7.35
2018-02-15T11:30:49.787Z,7.50
2018-02-15T11:33:18.138Z,7.11
2018-02-15T11:35:46.515Z,6.78
2018-02-15T11:38:14.864Z,6.49
2018-02-15T11:40:43.219Z,6.75
2018-02-15T11:43:11.958Z,6.89
2018-02-15T11:45:40.331Z,7.13
2018-02-15T11:48:08.675Z,6.69
2018-02-15T11:50:37.040Z,6.66
2018-02-15T11:53:05.804Z,7.29
2018-02-15T11:55:34.287Z,8.04
2018-02-15T11:58:02.632Z,8.01
2018-02-15T12:00:30.984Z,7.47
2018-02-15T12:02:59.396Z,7.35
2018-02-15T12:05:27.756Z,7.22
2018-02-15T12:07:56.091Z,7.24
2018-02-15T12:10:24.505Z,6.77
2018-02-15T12:12:52.855Z,6.93
2018-02-15T12:15:21.701Z,7.04
2018-02-15T12:17:50.611Z,6.85
2018-02-15T12:20:19.377Z,7.38
2018-02-15T12:22:47.732Z,7.33
2018-02-15T12:25:16.077Z,7.67
2018-02-15T12:27:44.921Z,7.23
2018-02-15T12:30:13.300Z,6.97
2018-02-15T12:32:41.674Z,7.29
2018-02-15T12:35:10.068Z,7.17
2018-02-15T12:37:38.486Z,7.32
2018-02-15T12:40:07.323Z,7.04
2018-02-15T12:42:35.701Z,7.55
2018-02-15T12:45:04.068Z,7.40
2018-02-15T12:47:32.412Z,7.76
2018-02-15T12:50:01.163Z,7.94
2018-02-15T12:52:29.539Z,7.98
2018-02-15T12:54:57.928Z,7.80
2018-02-15T12:57:26.288Z,7.09
2018-02-15T12:59:54.636Z,7.15
2018-02-15T13:02:22.995Z,7.14
2018-02-15T13:04:51.738Z,7.16
2018-02-15T13:07:20.115Z,7.20
2018-02-15T13:09:48.488Z,7.77
2018-02-15T13:12:34.783Z,7.81
2018-02-15T13:15:03.167Z,7.74
2018-02-15T13:17:31.516Z,8.16
2018-02-15T13:20:17.816Z,7.60
2018-02-15T13:22:48.868Z,7.68
2018-02-15T13:25:17.261Z,7.73
2018-02-15T13:28:03.512Z,8.17
2018-02-15T13:30:32.347Z,7.96
2018-02-15T13:33:00.695Z,8.40
2018-02-15T13:35:29.035Z,8.27
2018-02-15T13:37:57.400Z,8.40
2018-02-15T13:40:25.791Z,8.64
2018-02-15T13:42:54.136Z,7.92
2018-02-15T13:45:22.497Z,8.39
2018-02-15T13:47:51.001Z,8.12
2018-02-15T13:50:19.392Z,7.83
2018-02-15T13:52:47.856Z,8.07
2018-02-15T13:55:16.207Z,8.19
2018-02-15T13:57:44.589Z,8.06
2018-02-15T14:00:13.000Z,7.92
2018-02-15T14:02:41.387Z,7.93
2018-02-15T14:05:09.746Z,7.64
2018-02-15T14:07:38.094Z,7.45
2018-02-15T14:10:06.865Z,7.43
2018-02-15T14:12:35.214Z,7.28
2018-02-15T14:15:03.582Z,7.46
2018-02-15T14:17:31.991Z,7.91
2018-02-15T14:20:00.351Z,7.79
2018-02-15T14:22:28.715Z,8.18
2018-02-15T14:24:57.067Z,7.98
2018-02-15T14:27:25.537Z,7.69
2018-02-15T14:29:54.283Z,7.74
2018-02-15T14:32:22.651Z,7.92
2018-02-15T14:34:51.103Z,7.44
2018-02-15T14:37:19.499Z,7.23
2018-02-15T14:39:47.865Z,7.45
2018-02-15T14:42:16.236Z,7.24
2018-02-15T14:44:44.581Z,7.33
2018-02-15T14:47:13.422Z,7.49
2018-02-15T14:49:41.811Z,7.92
2018-02-15T14:52:10.187Z,7.57
2018-02-15T14:54:38.550Z,7.50
2018-02-15T14:57:07.026Z,7.66
2018-02-15T14:59:35.379Z,7.62
2018-02-15T15:02:04.270Z,7.23
2018-02-15T15:04:33.080Z,7.18
2018-02-15T15:07:01.484Z,7.88
2018-02-15T15:09:30.183Z,7.64
2018-02-15T15:11:58.647Z,7.43
2018-02-15T15:14:27.010Z,7.42
2018-02-15T15:16:55.390Z,7.10
2018-02-15T15:19:23.764Z,7.40
2018-02-15T15:21:52.107Z,7.64
2018-02-15T15:24:20.871Z,7.30
2018-02-15T15:26:49.229Z,7.72
2018-02-15T15:29:17.626Z,7.60
2018-02-15T15:31:45.983Z,7.70
2018-02-15T15:34:14.331Z,7.81
2018-02-15T15:36:42.683Z,8.18
2018-02-15T15:39:11.168Z,7.95
2018-02-15T15:41:39.920Z,7.87
2018-02-15T15:44:08.287Z,7.81
2018-02-15T15:46:38.316Z,7.52
2018-02-15T15:49:06.704Z,7.34
2018-02-15T15:51:35.179Z,7.77
2018-02-15T15:54:03.542Z,7.93
2018-02-15T15:56:31.888Z,8.34
2018-02-15T15:59:00.316Z,8.17
2018-02-15T16:01:28.667Z,7.77
2018-02-15T16:03:57.063Z,7.57
2018-02-15T16:06:25.488Z,7.80
2018-02-15T16:08:53.919Z,7.97
2018-02-15T16:11:22.308Z,8.17
2018-02-15T16:13:50.647Z,8.20
2018-02-15T16:16:19.010Z,8.40
2018-02-15T16:18:53.478Z,7.76
2018-02-15T16:21:21.837Z,8.25
2018-02-15T16:23:50.241Z,8.20
2018-02-15T16:26:18.591Z,8.17
2018-02-15T16:28:46.941Z,8.02
2018-02-15T16:31:15.814Z,8.19
2018-02-15T16:33:44.175Z,8.19
2018-02-15T16:36:12.545Z,8.22
2018-02-15T16:38:40.911Z,8.04
2018-02-15T16:41:09.260Z,8.32
2018-02-15T16:43:37.675Z,8.00
2018-02-15T16:46:06.016Z,8.14
2018-02-15T16:48:34.453Z,7.97
2018-02-15T16:51:02.819Z,8.06
2018-02-15T16:53:31.315Z,7.56
2018-02-15T16:55:59.684Z,7.40
2018-02-15T16:58:28.062Z,7.69
2018-02-15T17:00:56.423Z,7.94
2018-02-15T17:03:24.783Z,7.82
2018-02-15T17:05:53.135Z,7.70
2018-02-15T17:08:21.504Z,7.92
2018-02-15T17:10:50.247Z,7.74
2018-02-15T17:13:18.609Z,7.82
2018-02-15T17:15:47.013Z,7.88
2018-02-15T17:18:15.485Z,8.06
2018-02-15T17:20:43.847Z,7.87
2018-02-15T17:23:12.280Z,8.06
2018-02-15T17:25:40.632Z,8.33
2018-02-15T17:28:08.990Z,8.03
2018-02-15T17:30:37.339Z,8.19
2018-02-15T17:33:05.791Z,8.16
2018-02-15T17:35:34.133Z,8.31
2018-02-15T17:38:02.506Z,8.09
2018-02-15T17:40:30.856Z,8.01
2018-02-15T17:42:59.600Z,7.48
2018-02-15T17:45:27.968Z,7.11
2018-02-15T17:47:56.331Z,7.77
2018-02-15T17:50:24.679Z,7.86
2018-02-15T17:52:53.427Z,7.73
2018-02-15T17:55:27.592Z,7.30
2018-02-15T17:57:56.290Z,7.48
2018-02-15T18:00:24.674Z,7.48
2018-02-15T18:02:53.054Z,7.40
2018-02-15T18:05:21.449Z,7.50
2018-02-15T18:07:49.800Z,7.43
2018-02-15T18:10:18.207Z,7.18
2018-02-15T18:12:46.555Z,7.53
2018-02-15T18:15:15.059Z,7.08
2018-02-15T18:17:43.407Z,6.97
2018-02-15T18:20:11.901Z,7.28
2018-02-15T18:22:40.299Z,7.73
2018-02-15T18:25:08.675Z,7.58
2018-02-15T18:27:37.044Z,8.31
2018-02-15T18:30:05.415Z,8.24
2018-02-15T18:32:33.822Z,8.01
2018-02-15T18:35:02.197Z,7.63
2018-02-15T18:37:30.550Z,7.50
2018-02-15T18:39:58.953Z,7.73
2018-02-15T18:42:27.329Z,7.57
2018-02-15T18:44:55.685Z,7.85
2018-02-15T18:47:26.800Z,7.95
2018-02-15T18:49:57.481Z,8.02
2018-02-15T18:52:26.228Z,7.97
2018-02-15T18:54:56.666Z,7.83
2018-02-15T18:57:25.691Z,7.97
2018-02-15T18:59:57.139Z,7.55
2018-02-15T19:02:28.186Z,7.96
2018-02-15T19:04:56.545Z,8.07
2018-02-15T19:07:25.389Z,7.50
2018-02-15T19:09:56.309Z,7.60
2018-02-15T19:12:26.695Z,7.37
2018-02-15T19:14:56.652Z,7.74
2018-02-15T19:17:25.370Z,7.43
2018-02-15T19:19:55.303Z,7.59
2018-02-15T19:22:24.651Z,7.40
2018-02-15T19:24:55.625Z,7.04
2018-02-15T19:27:26.431Z,6.92
2018-02-15T19:29:57.305Z,6.90
2018-02-15T19:32:28.542Z,7.20
2018-02-15T19:34:57.392Z,7.39
2018-02-15T19:37:25.779Z,7.75
2018-02-15T19:39:54.225Z,7.85
2018-02-15T19:42:22.630Z,7.76
2018-02-15T19:44:51.115Z,7.18
2018-02-15T19:47:19.459Z,7.25
2018-02-15T19:49:48.067Z,7.02
2018-02-15T19:52:16.443Z,6.97
2018-02-15T19:54:44.920Z,7.29
2018-02-15T19:57:13.320Z,7.72
2018-02-15T19:59:41.869Z,7.90
2018-02-15T20:02:10.264Z,7.69
2018-02-15T20:04:38.638Z,7.95
2018-02-15T20:07:07.114Z,7.93
2018-02-15T20:09:35.504Z,7.78
2018-02-15T20:12:03.982Z,7.94
2018-02-15T20:14:32.322Z,7.86
2018-02-15T20:17:01.173Z,8.08
2018-02-15T20:19:29.536Z,8.08
2018-02-15T20:21:57.898Z,7.97
2018-02-15T20:24:26.300Z,8.14
2018-02-15T20:27:00.099Z,8.11
2018-02-15T20:29:28.479Z,7.74
2018-02-15T20:31:56.861Z,8.01
2018-02-15T20:34:25.325Z,8.07
2018-02-15T20:36:53.673Z,7.93
2018-02-15T20:39:27.909Z,7.73
2018-02-15T20:41:56.385Z,7.21
2018-02-15T20:44:24.726Z,7.17
2018-02-15T20:46:53.105Z,7.45
2018-02-15T20:49:27.010Z,7.47
2018-02-15T20:52:01.184Z,6.98
2018-02-15T20:54:35.112Z,6.91
2018-02-15T20:57:03.553Z,7.12
2018-02-15T20:59:31.956Z,7.36
2018-02-15T21:02:00.321Z,7.54
2018-02-15T21:04:28.894Z,7.22
2018-02-15T21:06:57.244Z,7.29
2018-02-15T21:09:26.097Z,7.25
2018-02-15T21:11:54.893Z,7.12
2018-02-15T21:14:23.259Z,7.14
2018-02-15T21:16:51.678Z,7.43
2018-02-15T21:19:20.023Z,7.54
2018-02-15T21:21:48.809Z,7.49
2018-02-15T21:24:17.143Z,7.67
2018-02-15T21:26:45.974Z,7.39
2018-02-15T21:29:14.676Z,7.62
2018-02-15T21:31:43.149Z,7.02
2018-02-15T21:34:13.429Z,7.35
2018-02-15T21:36:44.627Z,7.56
2018-02-15T21:39:14.347Z,7.52
2018-02-15T21:41:43.262Z,6.94
2018-02-15T21:44:12.267Z,7.10
2018-02-15T21:46:42.929Z,7.07
2018-02-15T21:49:12.293Z,7.20
2018-02-15T21:51:42.807Z,7.17
2018-02-15T21:54:13.511Z,7.23
2018-02-15T21:56:41.905Z,7.11
2018-02-15T21:59:10.368Z,7.50
2018-02-15T22:01:38.846Z,7.60
2018-02-15T22:04:07.257Z,7.67
2018-02-15T22:06:38.031Z,7.72
2018-02-15T22:09:06.764Z,7.71
2018-02-15T22:11:37.685Z,7.57
2018-02-15T22:14:06.088Z,7.85
2018-02-15T22:16:34.416Z,7.91
2018-02-15T22:19:02.849Z,7.73
2018-02-15T22:21:31.645Z,7.65
2018-02-15T22:24:00.417Z,7.55
2018-02-15T22:26:29.211Z,7.78
2018-02-15T22:28:58.539Z,7.76
2018-02-15T22:31:27.757Z,7.67
2018-02-15T22:33:56.121Z,7.84
2018-02-15T22:36:24.956Z,8.06
2018-02-15T22:38:53.324Z,8.24
2018-02-15T22:41:21.689Z,8.06
2018-02-15T22:43:50.041Z,8.16
2018-02-15T22:46:18.887Z,8.09
2018-02-15T22:48:47.234Z,7.98
2018-02-15T22:51:15.592Z,8.33
2018-02-15T22:53:44.435Z,8.13
2018-02-15T22:56:12.786Z,8.21
2018-02-15T22:58:41.179Z,8.12
2018-02-15T23:01:09.535Z,7.81
2018-02-15T23:03:37.899Z,7.68
2018-02-15T23:06:06.732Z,7.85
2018-02-15T23:08:35.115Z,8.20
2018-02-15T23:11:03.488Z,8.37
2018-02-15T23:13:31.858Z,8.42
2018-02-15T23:16:00.211Z,8.24
2018-02-15T23:18:28.563Z,8.07
2018-02-15T23:20:57.920Z,8.29
2018-02-15T23:23:26.267Z,8.44
2018-02-15T23:25:54.621Z,8.38
2018-02-15T23:28:23.477Z,8.37
2018-02-15T23:30:51.955Z,8.25
2018-02-15T23:33:20.329Z,8.38
2018-02-15T23:35:48.672Z,8.55
2018-02-15T23:38:17.029Z,8.63
2018-02-15T23:40:45.886Z,8.63
2018-02-15T23:43:14.263Z,8.56
2018-02-15T23:45:42.601Z,8.74
2018-02-15T23:48:10.965Z,8.83
2018-02-15T23:50:39.707Z,8.92
2018-02-15T23:53:08.072Z,8.79
2018-02-15T23:55:36.458Z,8.92
2018-02-15T23:58:04.853Z,8.68
